Tracy, Iowa
Current Conditions -  °F | °C
As of 1:15 PM on Thursday 30 Oct 2014 (Local Time) from KPEA Reporting Station
Clear Clear  
Wind Chill: 63°   Ceiling: Unl
Heat Index: 63°   Visibility: 10mi
Dew Point: 41°   Wind: 3mph
Humidity: 44%   Direction: 340°NNW
Pressure: 30.01"   Gusts: NA
Location:  41.28°N, 92.88°W
Report Text: KPEA 301815Z AUTO 34003KT 10SM CLR 17/05 A3001 RMK AO2 T01710048
Loading
Personal Weather Stations






























Interactive Weather Map
Tropical Storm Tracking
New forecast layout! Learn more

10-Day Weather Forecast

Advertisements
Track Severe Weather on mobile